createdAt,value
2019-03-31T00:00:33.756Z,0.00
2019-03-31T00:01:33.760Z,0.00
2019-03-31T00:02:33.737Z,0.00
2019-03-31T00:03:33.756Z,0.00
2019-03-31T00:04:33.720Z,0.00
2019-03-31T00:05:36.990Z,0.00
2019-03-31T00:06:33.689Z,0.00
2019-03-31T00:07:33.681Z,0.00
2019-03-31T00:08:33.673Z,0.00
2019-03-31T00:09:33.676Z,0.00
2019-03-31T00:10:33.665Z,0.00
2019-03-31T00:11:33.636Z,0.00
2019-03-31T00:12:33.635Z,0.00
2019-03-31T00:13:33.624Z,0.00
2019-03-31T00:14:33.602Z,0.00
2019-03-31T00:15:33.592Z,0.00
2019-03-31T00:16:33.581Z,0.00
2019-03-31T00:17:33.568Z,0.00
2019-03-31T00:18:33.565Z,0.00
2019-03-31T00:19:33.564Z,0.00
2019-03-31T00:20:33.534Z,0.00
2019-03-31T00:21:33.523Z,0.00
2019-03-31T00:22:33.512Z,0.00
2019-03-31T00:23:33.496Z,0.00
2019-03-31T00:24:33.494Z,0.00
2019-03-31T00:25:33.504Z,0.00
2019-03-31T00:26:33.468Z,0.00
2019-03-31T00:27:33.456Z,0.00
2019-03-31T00:28:33.444Z,0.00
2019-03-31T00:29:33.431Z,0.00
2019-03-31T00:30:33.432Z,0.00
2019-03-31T00:31:33.412Z,0.00
2019-03-31T00:32:33.404Z,0.00
2019-03-31T00:33:33.388Z,0.00
2019-03-31T00:34:33.372Z,0.00
2019-03-31T00:35:33.400Z,0.00
2019-03-31T00:36:33.352Z,0.00
2019-03-31T00:37:33.345Z,0.00
2019-03-31T00:38:33.340Z,0.00
2019-03-31T00:39:33.320Z,0.00
2019-03-31T00:40:33.308Z,0.00
2019-03-31T00:41:33.312Z,0.00
2019-03-31T00:42:33.287Z,0.00
2019-03-31T00:43:33.276Z,0.00
2019-03-31T00:44:33.268Z,0.00
2019-03-31T00:45:33.257Z,0.00
2019-03-31T00:46:33.240Z,0.00
2019-03-31T00:47:33.272Z,0.00
2019-03-31T00:48:33.216Z,0.00
2019-03-31T00:49:33.210Z,0.00
2019-03-31T00:50:33.199Z,0.00
2019-03-31T00:51:33.187Z,0.00
2019-03-31T00:52:33.173Z,0.00
2019-03-31T00:53:33.185Z,0.00
2019-03-31T00:54:33.148Z,0.00
2019-03-31T00:55:33.140Z,0.00
2019-03-31T00:56:33.127Z,0.00
2019-03-31T00:57:33.116Z,0.00
2019-03-31T00:58:33.108Z,0.00
2019-03-31T00:59:33.120Z,0.00
2019-03-31T01:00:33.081Z,0.00
2019-03-31T01:01:36.599Z,0.00
2019-03-31T01:02:33.062Z,0.00
2019-03-31T01:03:33.050Z,0.00
2019-03-31T01:04:33.038Z,0.00
2019-03-31T01:05:33.040Z,0.00
2019-03-31T01:06:33.012Z,0.00
2019-03-31T01:07:33.007Z,0.00
2019-03-31T01:08:32.990Z,0.00
2019-03-31T01:09:32.981Z,0.00
2019-03-31T01:10:32.996Z,0.00
2019-03-31T01:11:32.966Z,0.00
2019-03-31T01:12:32.956Z,0.00
2019-03-31T01:13:32.942Z,0.00
2019-03-31T01:14:32.921Z,0.00
2019-03-31T01:15:32.912Z,0.00
2019-03-31T01:16:32.918Z,0.00
2019-03-31T01:17:32.892Z,0.00
2019-03-31T01:18:32.880Z,0.00
2019-03-31T01:19:32.868Z,0.00
2019-03-31T01:20:32.860Z,0.00
2019-03-31T01:21:32.848Z,0.00
2019-03-31T01:22:32.847Z,0.00
2019-03-31T01:23:32.820Z,0.00
2019-03-31T01:24:32.812Z,0.00
2019-03-31T01:25:32.799Z,0.00
2019-03-31T01:26:32.786Z,0.00
2019-03-31T01:27:32.775Z,0.00
2019-03-31T01:28:32.780Z,0.00
2019-03-31T01:29:32.771Z,0.00
2019-03-31T01:30:32.748Z,0.00
2019-03-31T01:31:32.735Z,0.00
2019-03-31T01:32:32.732Z,0.00
2019-03-31T01:33:32.730Z,0.00
2019-03-31T01:34:32.727Z,0.00
2019-03-31T01:35:32.687Z,0.00
2019-03-31T01:36:32.675Z,0.00
2019-03-31T01:37:32.667Z,0.00
2019-03-31T01:38:32.651Z,0.00
2019-03-31T01:39:32.660Z,0.00
2019-03-31T01:40:32.648Z,0.00
2019-03-31T01:41:32.624Z,0.00
2019-03-31T01:42:32.608Z,0.00
2019-03-31T01:43:32.595Z,0.00
2019-03-31T01:44:32.584Z,0.00
2019-03-31T01:45:32.583Z,0.00
2019-03-31T01:46:32.564Z,0.00
2019-03-31T01:47:32.552Z,0.00
2019-03-31T01:48:32.564Z,0.00
2019-03-31T01:49:32.541Z,0.00
2019-03-31T01:50:32.519Z,0.00
2019-03-31T01:51:32.507Z,0.00
2019-03-31T01:52:32.511Z,0.00
2019-03-31T01:53:32.503Z,0.00
2019-03-31T01:54:32.487Z,0.00
2019-03-31T01:55:32.459Z,0.00
2019-03-31T01:56:32.456Z,0.00
2019-03-31T01:57:32.440Z,0.00
2019-03-31T01:58:32.428Z,0.00
2019-03-31T01:59:32.420Z,0.00
2019-03-31T02:00:32.417Z,0.00
2019-03-31T02:01:32.407Z,0.00
2019-03-31T02:02:32.455Z,0.00
2019-03-31T02:03:32.369Z,0.00
2019-03-31T02:04:32.355Z,0.00
2019-03-31T02:05:32.350Z,0.00
2019-03-31T02:06:32.354Z,0.00
2019-03-31T02:07:32.323Z,0.00
2019-03-31T02:08:32.321Z,0.00
2019-03-31T02:09:32.303Z,0.00
2019-03-31T02:10:32.286Z,0.00
2019-03-31T02:11:32.279Z,0.00
2019-03-31T02:12:32.280Z,0.00
2019-03-31T02:13:32.257Z,0.00
2019-03-31T02:14:32.251Z,0.00
2019-03-31T02:15:32.255Z,0.00
2019-03-31T02:16:32.230Z,0.00
2019-03-31T02:17:32.252Z,0.00
2019-03-31T02:18:32.211Z,0.00
2019-03-31T02:19:32.209Z,0.00
2019-03-31T02:20:32.196Z,0.00
2019-03-31T02:21:32.171Z,0.00
2019-03-31T02:22:32.159Z,0.00
2019-03-31T02:23:32.156Z,0.00
2019-03-31T02:24:32.131Z,0.00
2019-03-31T02:25:32.134Z,0.00
2019-03-31T02:26:32.121Z,0.00
2019-03-31T02:27:32.118Z,0.00
2019-03-31T02:28:32.107Z,0.00
2019-03-31T02:29:32.092Z,0.00
2019-03-31T02:30:32.081Z,0.00
2019-03-31T02:31:32.076Z,0.00
2019-03-31T02:32:32.045Z,0.00
2019-03-31T02:33:32.040Z,0.00
2019-03-31T02:34:32.034Z,0.00
2019-03-31T02:35:32.031Z,0.00
2019-03-31T02:36:32.004Z,0.00
2019-03-31T02:37:31.984Z,0.00
2019-03-31T02:38:31.975Z,0.00
2019-03-31T02:39:31.979Z,0.00
2019-03-31T02:40:31.968Z,0.00
2019-03-31T02:41:31.959Z,0.00
2019-03-31T02:42:31.933Z,0.00
2019-03-31T02:43:31.924Z,0.00
2019-03-31T02:44:31.919Z,0.00
2019-03-31T02:45:31.900Z,0.00
2019-03-31T02:46:31.901Z,0.00
2019-03-31T02:47:31.900Z,0.00
2019-03-31T02:48:31.860Z,0.00
2019-03-31T02:49:31.853Z,0.00
2019-03-31T02:50:31.849Z,0.00
2019-03-31T02:51:31.940Z,0.00
2019-03-31T02:52:31.836Z,0.00
2019-03-31T02:53:31.832Z,0.00
2019-03-31T02:54:31.807Z,0.00
2019-03-31T02:55:31.813Z,0.00
2019-03-31T02:56:31.775Z,0.00
2019-03-31T02:57:31.772Z,0.00
2019-03-31T02:58:31.761Z,0.00
2019-03-31T02:59:31.777Z,0.00
2019-03-31T03:00:31.736Z,0.00
2019-03-31T03:01:31.739Z,0.00
2019-03-31T03:02:41.625Z,0.00
2019-03-31T03:03:32.708Z,0.00
2019-03-31T03:04:31.680Z,0.00
2019-03-31T03:05:31.691Z,0.00
2019-03-31T03:06:31.664Z,0.00
2019-03-31T03:07:31.651Z,0.00
2019-03-31T03:08:31.635Z,0.00
2019-03-31T03:09:31.624Z,0.00
2019-03-31T03:10:31.633Z,0.00
2019-03-31T03:11:31.626Z,0.00
2019-03-31T03:12:31.591Z,0.00
2019-03-31T03:13:31.576Z,0.00
2019-03-31T03:14:31.568Z,0.00
2019-03-31T03:15:31.569Z,0.00
2019-03-31T03:16:31.558Z,0.00
2019-03-31T03:17:31.551Z,0.00
2019-03-31T03:18:31.524Z,0.00
2019-03-31T03:19:31.525Z,0.00
2019-03-31T03:20:31.502Z,0.00
2019-03-31T03:21:31.513Z,0.00
2019-03-31T03:22:31.495Z,0.00
2019-03-31T03:23:31.469Z,0.00
2019-03-31T03:24:31.459Z,0.00
2019-03-31T03:25:31.447Z,0.00
2019-03-31T03:26:31.537Z,0.00
2019-03-31T03:27:31.435Z,0.00
2019-03-31T03:28:31.443Z,0.00
2019-03-31T03:29:31.403Z,0.00
2019-03-31T03:30:31.477Z,0.00
2019-03-31T03:31:31.391Z,0.00
2019-03-31T03:32:31.368Z,0.00
2019-03-31T03:33:31.378Z,0.00
2019-03-31T03:34:31.354Z,0.00
2019-03-31T03:35:31.381Z,0.00
2019-03-31T03:36:31.325Z,0.00
2019-03-31T03:37:31.308Z,0.00
2019-03-31T03:38:31.315Z,0.00
2019-03-31T03:39:31.289Z,0.00
2019-03-31T03:40:31.280Z,0.00
2019-03-31T03:41:31.270Z,0.00
2019-03-31T03:42:31.257Z,0.00
2019-03-31T03:43:31.245Z,0.00
2019-03-31T03:44:31.253Z,0.00
2019-03-31T03:45:31.237Z,0.00
2019-03-31T03:46:31.207Z,0.00
2019-03-31T03:47:31.196Z,0.00
2019-03-31T03:48:31.193Z,0.00
2019-03-31T03:49:31.172Z,0.00
2019-03-31T03:50:31.179Z,0.00
2019-03-31T03:51:31.151Z,0.00
2019-03-31T03:52:31.165Z,0.00
2019-03-31T03:53:31.131Z,0.00
2019-03-31T03:54:31.126Z,0.00
2019-03-31T03:55:31.125Z,0.00
2019-03-31T03:56:31.099Z,0.00
2019-03-31T03:57:31.085Z,0.00
2019-03-31T03:58:31.079Z,0.00
2019-03-31T03:59:31.061Z,0.00
2019-03-31T04:00:31.051Z,0.00
2019-03-31T04:01:31.051Z,0.00
2019-03-31T04:02:31.052Z,0.00
2019-03-31T04:03:31.295Z,0.00
2019-03-31T04:04:31.004Z,0.00
2019-03-31T04:05:30.995Z,0.00
2019-03-31T04:06:30.982Z,0.00
2019-03-31T04:07:30.985Z,0.00
2019-03-31T04:08:30.960Z,0.00
2019-03-31T04:09:30.959Z,0.00
2019-03-31T04:10:30.936Z,0.00
2019-03-31T04:11:30.946Z,0.00
2019-03-31T04:12:30.913Z,0.00
2019-03-31T04:13:30.900Z,0.00
2019-03-31T04:14:30.895Z,0.00
2019-03-31T04:15:30.886Z,0.00
2019-03-31T04:16:30.884Z,0.00
2019-03-31T04:17:30.883Z,0.00
2019-03-31T04:18:30.848Z,0.00
2019-03-31T04:19:30.836Z,0.00
2019-03-31T04:20:30.825Z,0.00
2019-03-31T04:21:30.812Z,0.00
2019-03-31T04:22:30.805Z,0.00
2019-03-31T04:23:30.800Z,0.00
2019-03-31T04:24:30.801Z,0.00
2019-03-31T04:25:30.765Z,0.00
2019-03-31T04:26:30.761Z,0.00
2019-03-31T04:27:30.748Z,0.00
2019-03-31T04:28:30.748Z,0.00
2019-03-31T04:29:30.728Z,0.00
2019-03-31T04:30:30.744Z,0.00
2019-03-31T04:31:30.725Z,0.00
2019-03-31T04:32:30.689Z,0.00
2019-03-31T04:33:49.699Z,0.00
2019-03-31T04:34:31.665Z,0.00
2019-03-31T04:35:30.652Z,0.00
2019-03-31T04:36:30.677Z,0.00
2019-03-31T04:37:30.635Z,0.00
2019-03-31T04:38:30.627Z,0.00
2019-03-31T04:39:30.613Z,4.00
2019-03-31T04:40:30.608Z,4.00
2019-03-31T04:41:30.612Z,0.00
2019-03-31T04:42:30.607Z,4.00
2019-03-31T04:43:30.583Z,4.00
2019-03-31T04:44:30.564Z,0.00
2019-03-31T04:45:30.548Z,4.00
2019-03-31T04:46:30.534Z,4.00
2019-03-31T04:47:30.553Z,4.00
2019-03-31T04:48:30.513Z,8.00
2019-03-31T04:49:30.504Z,4.00
2019-03-31T04:50:30.487Z,4.00
2019-03-31T04:51:30.474Z,8.00
2019-03-31T04:52:30.470Z,12.00
2019-03-31T04:53:30.494Z,12.00
2019-03-31T04:54:30.491Z,12.00
2019-03-31T04:55:30.431Z,16.00
2019-03-31T04:56:30.419Z,20.00
2019-03-31T04:57:30.411Z,24.00
2019-03-31T04:58:30.397Z,24.00
2019-03-31T04:59:30.398Z,28.00
2019-03-31T05:00:30.375Z,32.00
2019-03-31T05:01:30.363Z,40.00
2019-03-31T05:02:30.355Z,40.00
2019-03-31T05:03:30.382Z,44.00
2019-03-31T05:04:30.351Z,52.00
2019-03-31T05:05:30.316Z,56.00
2019-03-31T05:06:30.303Z,64.00
2019-03-31T05:07:30.308Z,72.00
2019-03-31T05:08:30.297Z,72.00
2019-03-31T05:09:30.287Z,80.00
2019-03-31T05:10:30.291Z,80.00
2019-03-31T05:11:30.263Z,84.00
2019-03-31T05:12:30.259Z,88.00
2019-03-31T05:13:30.242Z,96.00
2019-03-31T05:14:30.244Z,96.00
2019-03-31T05:15:30.237Z,104.00
2019-03-31T05:16:30.190Z,108.00
2019-03-31T05:17:30.183Z,116.00
2019-03-31T05:18:30.171Z,124.00
2019-03-31T05:19:30.172Z,140.00
2019-03-31T05:20:30.158Z,148.00
2019-03-31T05:21:30.171Z,156.00
2019-03-31T05:22:30.126Z,160.00
2019-03-31T05:23:30.118Z,160.00
2019-03-31T05:24:30.102Z,156.00
2019-03-31T05:25:30.092Z,156.00
2019-03-31T05:26:30.080Z,156.00
2019-03-31T05:27:30.082Z,160.00
2019-03-31T05:28:30.057Z,168.00
2019-03-31T05:29:30.044Z,172.00
2019-03-31T05:30:30.036Z,180.00
2019-03-31T05:31:30.023Z,184.00
2019-03-31T05:32:30.027Z,188.00
2019-03-31T05:33:29.999Z,188.00
2019-03-31T05:34:29.986Z,192.00
2019-03-31T05:35:29.979Z,200.00
2019-03-31T05:36:29.964Z,208.00
2019-03-31T05:37:29.981Z,216.00
2019-03-31T05:38:29.946Z,220.00
2019-03-31T05:39:29.998Z,224.00
2019-03-31T05:40:30.846Z,232.00
2019-03-31T05:41:29.922Z,244.00
2019-03-31T05:42:29.903Z,260.00
2019-03-31T05:43:29.896Z,276.00
2019-03-31T05:44:29.882Z,304.00
2019-03-31T05:45:29.866Z,332.00
2019-03-31T05:46:29.864Z,380.00
2019-03-31T05:47:29.846Z,428.00
2019-03-31T05:48:29.849Z,480.00
2019-03-31T05:49:29.825Z,524.00
2019-03-31T05:50:29.821Z,560.00
2019-03-31T05:51:29.820Z,596.00
2019-03-31T05:52:29.859Z,624.00
2019-03-31T05:53:29.788Z,648.00
2019-03-31T05:54:29.761Z,664.00
2019-03-31T05:55:29.755Z,688.00
2019-03-31T05:56:29.743Z,708.00
2019-03-31T05:57:29.745Z,724.00
2019-03-31T05:58:29.713Z,724.00
2019-03-31T05:59:29.717Z,744.00
2019-03-31T06:00:29.701Z,764.00
2019-03-31T06:01:29.686Z,760.00
2019-03-31T06:02:29.668Z,800.00
2019-03-31T06:03:29.678Z,828.00
2019-03-31T06:04:33.425Z,844.00
2019-03-31T06:05:29.642Z,880.00
2019-03-31T06:06:29.625Z,936.00
2019-03-31T06:07:29.616Z,992.00
2019-03-31T06:08:29.606Z,1028.00
2019-03-31T06:09:29.609Z,1048.00
2019-03-31T06:10:29.582Z,1060.00
2019-03-31T06:11:29.569Z,1056.00
2019-03-31T06:12:29.561Z,988.00
2019-03-31T06:13:29.563Z,960.00
2019-03-31T06:14:29.561Z,952.00
2019-03-31T06:15:29.531Z,988.00
2019-03-31T06:16:29.517Z,1028.00
2019-03-31T06:17:29.513Z,1000.00
2019-03-31T06:18:29.494Z,1012.00
2019-03-31T06:19:29.481Z,980.00
2019-03-31T06:20:29.485Z,944.00
2019-03-31T06:21:29.468Z,1020.00
2019-03-31T06:22:29.449Z,1072.00
2019-03-31T06:23:29.432Z,1084.00
2019-03-31T06:24:29.430Z,1196.00
2019-03-31T06:25:29.418Z,1312.00
2019-03-31T06:26:29.414Z,1428.00
2019-03-31T06:27:29.387Z,1460.00
2019-03-31T06:28:29.378Z,1504.00
2019-03-31T06:29:29.362Z,1620.00
2019-03-31T06:30:29.353Z,1680.00
2019-03-31T06:31:29.357Z,1732.00
2019-03-31T06:32:29.333Z,1780.00
2019-03-31T06:33:29.321Z,1852.00
2019-03-31T06:34:29.331Z,1892.00
2019-03-31T06:35:29.308Z,1884.00
2019-03-31T06:36:29.293Z,1848.00
2019-03-31T06:37:29.277Z,1896.00
2019-03-31T06:38:29.265Z,2004.00
2019-03-31T06:39:29.273Z,2048.00
2019-03-31T06:40:29.281Z,2040.00
2019-03-31T06:41:29.233Z,2072.00
2019-03-31T06:42:29.220Z,2108.00
2019-03-31T06:43:29.244Z,2132.00
2019-03-31T06:44:29.200Z,2144.00
2019-03-31T06:45:29.204Z,2148.00
2019-03-31T06:46:29.178Z,2152.00
2019-03-31T06:47:29.168Z,2080.00
2019-03-31T06:48:29.154Z,2076.00
2019-03-31T06:49:29.141Z,1968.00
2019-03-31T06:50:29.125Z,1916.00
2019-03-31T06:51:29.145Z,1964.00
2019-03-31T06:52:29.100Z,1880.00
2019-03-31T06:53:29.096Z,1856.00
2019-03-31T06:54:29.092Z,1864.00
2019-03-31T06:55:29.092Z,1860.00
2019-03-31T06:56:29.056Z,1816.00
2019-03-31T06:57:29.061Z,1748.00
2019-03-31T06:58:29.043Z,1696.00
2019-03-31T06:59:29.031Z,1864.00
2019-03-31T07:00:29.021Z,1984.00
2019-03-31T07:01:29.008Z,1924.00
2019-03-31T07:02:28.997Z,1964.00
2019-03-31T07:03:29.016Z,2080.00
2019-03-31T07:04:28.972Z,2272.00
2019-03-31T07:05:28.960Z,2588.00
2019-03-31T07:06:28.951Z,2612.00
2019-03-31T07:07:28.937Z,2628.00
2019-03-31T07:08:28.953Z,2576.00
2019-03-31T07:09:28.936Z,2520.00
2019-03-31T07:10:28.904Z,2712.00
2019-03-31T07:11:28.894Z,2876.00
2019-03-31T07:12:28.881Z,3036.00
2019-03-31T07:13:28.868Z,3020.00
2019-03-31T07:14:28.872Z,3000.00
2019-03-31T07:15:28.848Z,3088.00
2019-03-31T07:16:28.836Z,3136.00
2019-03-31T07:17:28.847Z,3160.00
2019-03-31T07:18:28.813Z,3216.00
2019-03-31T07:19:28.800Z,3284.00
2019-03-31T07:20:28.823Z,3020.00
2019-03-31T07:21:28.780Z,3024.00
2019-03-31T07:22:28.773Z,3036.00
2019-03-31T07:23:28.757Z,2960.00
2019-03-31T07:24:28.744Z,2888.00
2019-03-31T07:25:28.737Z,2784.00
2019-03-31T07:26:28.746Z,2792.00
2019-03-31T07:27:28.714Z,2828.00
2019-03-31T07:28:28.701Z,3264.00
2019-03-31T07:29:28.689Z,3284.00
2019-03-31T07:30:28.680Z,3416.00
2019-03-31T07:31:28.668Z,3464.00
2019-03-31T07:32:28.690Z,3384.00
2019-03-31T07:33:28.652Z,3624.00
2019-03-31T07:34:28.645Z,3640.00
2019-03-31T07:35:28.623Z,3852.00
2019-03-31T07:36:28.613Z,4024.00
2019-03-31T07:37:28.597Z,3820.00
2019-03-31T07:38:38.854Z,4004.00
2019-03-31T07:39:29.643Z,3912.00
2019-03-31T07:40:28.578Z,3560.00
2019-03-31T07:41:28.831Z,4064.00
2019-03-31T07:42:28.656Z,3992.00
2019-03-31T07:43:28.532Z,3704.00
2019-03-31T07:44:28.544Z,3872.00
2019-03-31T07:45:28.508Z,4100.00
2019-03-31T07:46:28.501Z,4004.00
2019-03-31T07:47:28.484Z,4184.00
2019-03-31T07:48:28.477Z,3900.00
2019-03-31T07:49:28.472Z,4032.00
2019-03-31T07:50:28.542Z,4412.00
2019-03-31T07:51:28.443Z,3860.00
2019-03-31T07:52:28.496Z,3776.00
2019-03-31T07:53:28.437Z,4060.00
2019-03-31T07:54:28.439Z,4628.00
2019-03-31T07:55:28.407Z,5028.00
2019-03-31T07:56:28.395Z,4668.00
2019-03-31T07:57:28.382Z,4800.00
2019-03-31T07:58:28.390Z,4824.00
2019-03-31T07:59:28.456Z,4556.00
2019-03-31T08:00:28.356Z,4492.00
2019-03-31T08:01:28.343Z,4488.00
2019-03-31T08:02:28.323Z,4212.00
2019-03-31T08:03:28.303Z,3868.00
2019-03-31T08:04:28.308Z,3920.00
2019-03-31T08:05:33.279Z,4224.00
2019-03-31T08:06:29.296Z,4380.00
2019-03-31T08:07:28.273Z,4420.00
2019-03-31T08:08:28.312Z,4280.00
2019-03-31T08:09:28.249Z,4456.00
2019-03-31T08:10:28.233Z,4280.00
2019-03-31T08:11:28.222Z,4168.00
2019-03-31T08:12:28.235Z,4004.00
2019-03-31T08:13:28.196Z,3920.00
2019-03-31T08:14:28.195Z,4128.00
2019-03-31T08:15:28.175Z,4408.00
2019-03-31T08:16:28.155Z,4112.00
2019-03-31T08:17:28.159Z,4056.00
2019-03-31T08:18:28.152Z,4144.00
2019-03-31T08:19:28.123Z,4088.00
2019-03-31T08:20:28.120Z,4212.00
2019-03-31T08:21:28.109Z,4632.00
2019-03-31T08:22:28.091Z,5184.00
2019-03-31T08:23:28.095Z,4992.00
2019-03-31T08:24:28.099Z,5040.00
2019-03-31T08:25:28.056Z,5320.00
2019-03-31T08:26:28.057Z,5204.00
2019-03-31T08:27:28.052Z,5208.00
2019-03-31T08:28:28.039Z,5072.00
2019-03-31T08:29:28.039Z,5064.00
2019-03-31T08:30:28.003Z,5056.00
2019-03-31T08:31:27.988Z,5180.00
2019-03-31T08:32:28.601Z,4888.00
2019-03-31T08:33:27.976Z,4428.00
2019-03-31T08:34:27.963Z,4428.00
2019-03-31T08:35:27.969Z,4448.00
2019-03-31T08:36:35.430Z,4592.00
2019-03-31T08:37:27.920Z,4812.00
2019-03-31T08:38:27.908Z,4964.00
2019-03-31T08:39:27.901Z,4904.00
2019-03-31T08:40:27.903Z,4564.00
2019-03-31T08:41:27.872Z,4184.00
2019-03-31T08:42:27.927Z,4320.00
2019-03-31T08:43:27.855Z,4636.00
2019-03-31T08:44:27.840Z,4868.00
2019-03-31T08:45:30.453Z,4884.00
2019-03-31T08:46:27.935Z,4792.00
2019-03-31T08:47:27.811Z,4988.00
2019-03-31T08:48:27.868Z,5164.00
2019-03-31T08:49:27.784Z,4992.00
2019-03-31T08:50:27.772Z,4896.00
2019-03-31T08:51:27.787Z,4872.00
2019-03-31T08:52:27.759Z,4768.00
2019-03-31T08:53:27.775Z,4672.00
2019-03-31T08:54:27.762Z,4532.00
2019-03-31T08:55:27.717Z,4624.00
2019-03-31T08:56:27.810Z,5012.00
2019-03-31T08:57:27.709Z,5296.00
2019-03-31T08:58:27.679Z,5488.00
2019-03-31T08:59:27.683Z,5728.00
2019-03-31T09:00:27.683Z,5760.00
2019-03-31T09:01:27.648Z,6080.00
2019-03-31T09:02:27.639Z,6012.00
2019-03-31T09:03:27.636Z,5728.00
2019-03-31T09:04:27.611Z,5704.00
2019-03-31T09:05:27.607Z,5788.00
2019-03-31T09:06:27.591Z,5688.00
2019-03-31T09:07:27.583Z,5640.00
2019-03-31T09:08:27.586Z,5516.00
2019-03-31T09:09:27.571Z,5348.00
2019-03-31T09:10:27.543Z,5072.00
2019-03-31T09:11:27.538Z,4656.00
2019-03-31T09:12:27.527Z,4132.00
2019-03-31T09:13:27.514Z,3836.00
2019-03-31T09:14:27.523Z,3848.00
2019-03-31T09:15:27.507Z,4140.00
2019-03-31T09:16:27.478Z,4460.00
2019-03-31T09:17:27.462Z,4660.00
2019-03-31T09:18:27.451Z,4740.00
2019-03-31T09:19:27.446Z,4828.00
2019-03-31T09:20:27.430Z,5408.00
2019-03-31T09:21:27.442Z,6160.00
2019-03-31T09:22:27.439Z,6632.00
2019-03-31T09:23:27.395Z,6488.00
2019-03-31T09:24:27.393Z,6104.00
2019-03-31T09:25:27.380Z,6120.00
2019-03-31T09:26:27.359Z,6452.00
2019-03-31T09:27:27.371Z,6660.00
2019-03-31T09:28:27.371Z,6152.00
2019-03-31T09:29:27.373Z,5356.00
2019-03-31T09:30:27.319Z,4720.00
2019-03-31T09:31:27.307Z,4572.00
2019-03-31T09:32:27.332Z,4340.00
2019-03-31T09:33:27.304Z,4184.00
2019-03-31T09:34:27.269Z,4120.00
2019-03-31T09:35:27.259Z,4144.00
2019-03-31T09:36:27.251Z,4480.00
2019-03-31T09:37:27.243Z,4632.00
2019-03-31T09:38:27.240Z,4636.00
2019-03-31T09:39:27.212Z,4488.00
2019-03-31T09:40:27.204Z,4284.00
2019-03-31T09:41:27.190Z,4676.00
2019-03-31T09:42:27.179Z,4936.00
2019-03-31T09:43:27.174Z,5328.00
2019-03-31T09:44:30.177Z,6116.00
2019-03-31T09:45:27.146Z,6576.00
2019-03-31T09:46:27.134Z,6736.00
2019-03-31T09:47:27.143Z,6640.00
2019-03-31T09:48:27.113Z,6208.00
2019-03-31T09:49:27.106Z,5756.00
2019-03-31T09:50:27.180Z,5520.00
2019-03-31T09:51:27.078Z,5680.00
2019-03-31T09:52:27.067Z,5712.00
2019-03-31T09:53:27.067Z,5604.00
2019-03-31T09:54:27.075Z,5660.00
2019-03-31T09:55:27.056Z,5864.00
2019-03-31T09:56:27.047Z,5988.00
2019-03-31T09:57:27.007Z,6488.00
2019-03-31T09:58:27.003Z,6652.00
2019-03-31T09:59:26.990Z,6412.00
2019-03-31T10:00:26.977Z,5948.00
2019-03-31T10:01:26.963Z,5880.00
2019-03-31T10:02:26.978Z,6488.00
2019-03-31T10:03:26.940Z,6848.00
2019-03-31T10:04:26.928Z,6988.00
2019-03-31T10:05:26.919Z,7008.00
2019-03-31T10:06:30.452Z,6364.00
2019-03-31T10:07:26.926Z,6176.00
2019-03-31T10:08:26.895Z,6300.00
2019-03-31T10:09:26.871Z,5932.00
2019-03-31T10:10:26.871Z,5420.00
2019-03-31T10:11:26.862Z,5056.00
2019-03-31T10:12:26.835Z,4820.00
2019-03-31T10:13:26.888Z,4632.00
2019-03-31T10:14:26.874Z,4452.00
2019-03-31T10:15:26.807Z,4324.00
2019-03-31T10:16:26.819Z,4568.00
2019-03-31T10:17:26.843Z,5128.00
2019-03-31T10:18:26.775Z,5684.00
2019-03-31T10:19:26.754Z,5776.00
2019-03-31T10:20:26.743Z,5240.00
2019-03-31T10:21:26.787Z,4760.00
2019-03-31T10:22:26.726Z,4696.00
2019-03-31T10:23:26.720Z,4836.00
2019-03-31T10:24:26.702Z,4880.00
2019-03-31T10:25:26.696Z,4708.00
2019-03-31T10:26:32.349Z,4544.00
2019-03-31T10:27:27.682Z,4480.00
2019-03-31T10:28:26.672Z,4536.00
2019-03-31T10:29:26.639Z,4564.00
2019-03-31T10:30:26.631Z,4624.00
2019-03-31T10:31:26.631Z,4720.00
2019-03-31T10:32:26.611Z,4968.00
2019-03-31T10:33:26.595Z,5088.00
2019-03-31T10:34:26.596Z,5076.00
2019-03-31T10:35:26.572Z,5208.00
2019-03-31T10:36:26.560Z,5528.00
2019-03-31T10:37:26.566Z,5796.00
2019-03-31T10:38:26.544Z,5900.00
2019-03-31T10:39:26.553Z,6032.00
2019-03-31T10:40:26.521Z,6256.00
2019-03-31T10:41:26.507Z,6528.00
2019-03-31T10:42:26.492Z,6692.00
2019-03-31T10:43:26.497Z,6736.00
2019-03-31T10:44:26.470Z,6372.00
2019-03-31T10:45:26.458Z,6020.00
2019-03-31T10:46:26.459Z,5936.00
2019-03-31T10:47:26.460Z,5872.00
2019-03-31T10:48:26.453Z,5668.00
2019-03-31T10:49:26.411Z,5624.00
2019-03-31T10:50:26.398Z,5536.00
2019-03-31T10:51:26.393Z,5544.00
2019-03-31T10:52:26.382Z,5692.00
2019-03-31T10:53:26.374Z,5804.00
2019-03-31T10:54:26.379Z,5932.00
2019-03-31T10:55:26.346Z,5980.00
2019-03-31T10:56:26.332Z,5956.00
2019-03-31T10:57:26.322Z,5816.00
2019-03-31T10:58:26.307Z,5700.00
2019-03-31T10:59:26.296Z,5640.00
2019-03-31T11:00:26.306Z,5512.00
2019-03-31T11:01:26.275Z,5484.00
2019-03-31T11:02:26.268Z,5340.00
2019-03-31T11:03:26.254Z,5108.00
2019-03-31T11:04:26.246Z,5000.00
2019-03-31T11:05:26.227Z,5080.00
2019-03-31T11:06:26.271Z,5308.00
2019-03-31T11:07:26.218Z,5504.00
2019-03-31T11:08:26.202Z,5772.00
2019-03-31T11:09:26.234Z,5744.00
2019-03-31T11:10:26.179Z,5888.00
2019-03-31T11:11:26.172Z,6160.00
2019-03-31T11:12:26.194Z,6328.00
2019-03-31T11:13:26.142Z,6428.00
2019-03-31T11:14:26.126Z,6572.00
2019-03-31T11:15:26.151Z,6740.00
2019-03-31T11:16:26.121Z,6988.00
2019-03-31T11:17:26.110Z,7184.00
2019-03-31T11:18:26.098Z,7304.00
2019-03-31T11:19:26.082Z,7560.00
2019-03-31T11:20:26.066Z,7192.00
2019-03-31T11:21:26.048Z,7032.00
2019-03-31T11:22:26.039Z,7096.00
2019-03-31T11:23:26.047Z,7040.00
2019-03-31T11:24:26.012Z,6732.00
2019-03-31T11:25:29.201Z,6848.00
2019-03-31T11:26:26.020Z,7272.00
2019-03-31T11:27:25.983Z,7512.00
2019-03-31T11:28:25.972Z,7488.00
2019-03-31T11:29:25.989Z,7480.00
2019-03-31T11:30:25.955Z,7460.00
2019-03-31T11:31:25.978Z,7556.00
2019-03-31T11:32:25.970Z,7640.00
2019-03-31T11:33:25.910Z,7604.00
2019-03-31T11:34:25.898Z,7672.00
2019-03-31T11:35:25.922Z,7732.00
2019-03-31T11:36:25.878Z,7884.00
2019-03-31T11:37:25.869Z,7856.00
2019-03-31T11:38:25.858Z,7828.00
2019-03-31T11:39:25.846Z,7804.00
2019-03-31T11:40:25.891Z,7820.00
2019-03-31T11:41:25.830Z,7984.00
2019-03-31T11:42:25.813Z,8088.00
2019-03-31T11:43:25.797Z,8108.00
2019-03-31T11:44:27.713Z,8128.00
2019-03-31T11:45:25.774Z,8192.00
2019-03-31T11:46:25.782Z,8300.00
2019-03-31T11:47:25.756Z,8344.00
2019-03-31T11:48:25.742Z,8116.00
2019-03-31T11:49:25.734Z,7716.00
2019-03-31T11:50:25.796Z,7312.00
2019-03-31T11:51:25.710Z,7124.00
2019-03-31T11:52:25.717Z,7248.00
2019-03-31T11:53:25.690Z,7388.00
2019-03-31T11:54:25.686Z,7520.00
2019-03-31T11:55:25.662Z,7516.00
2019-03-31T11:56:25.674Z,7512.00
2019-03-31T11:57:25.642Z,7696.00
2019-03-31T11:58:25.630Z,7892.00
2019-03-31T11:59:25.625Z,8008.00
2019-03-31T12:00:25.614Z,8076.00
2019-03-31T12:01:25.594Z,8164.00
2019-03-31T12:02:27.380Z,8128.00
2019-03-31T12:03:25.595Z,8000.00
2019-03-31T12:04:25.562Z,7976.00
2019-03-31T12:05:25.566Z,7948.00
2019-03-31T12:06:25.542Z,7836.00
2019-03-31T12:07:28.169Z,7540.00
2019-03-31T12:08:25.514Z,7452.00
2019-03-31T12:09:25.501Z,7748.00
2019-03-31T12:10:25.542Z,7916.00
2019-03-31T12:11:25.522Z,7916.00
2019-03-31T12:12:25.469Z,8064.00
2019-03-31T12:13:25.463Z,7128.00
2019-03-31T12:14:25.450Z,6480.00
2019-03-31T12:15:25.442Z,6472.00
2019-03-31T12:16:25.422Z,6592.00
2019-03-31T12:17:25.426Z,6692.00
2019-03-31T12:18:25.463Z,6724.00
2019-03-31T12:19:25.410Z,6828.00
2019-03-31T12:20:25.381Z,6848.00
2019-03-31T12:21:25.367Z,6908.00
2019-03-31T12:22:25.354Z,7112.00
2019-03-31T12:23:25.346Z,7356.00
2019-03-31T12:24:25.346Z,7364.00
2019-03-31T12:25:25.338Z,7200.00
2019-03-31T12:26:25.315Z,7168.00
2019-03-31T12:27:25.316Z,7472.00
2019-03-31T12:28:25.302Z,7720.00
2019-03-31T12:29:25.274Z,8032.00
2019-03-31T12:30:25.267Z,7992.00
2019-03-31T12:31:25.257Z,7536.00
2019-03-31T12:32:25.287Z,7032.00
2019-03-31T12:33:25.234Z,6580.00
2019-03-31T12:34:25.235Z,6580.00
2019-03-31T12:35:25.214Z,6712.00